Time;durP1;ratioP1;P1;durP2;ratioP2;P2;SDS_P1;SDS_P2;PMS_P1;PMS_P2;Temp;Humidity;BMP_temperature;BMP_pressure;BME280_temperature;BME280_humidity;BME280_pressure;Samples;Min_cycle;Max_cycle;Signal;HPM_P1;HPM_P2
2022/01/19 00:00:48;;;;;;;;;22.67;22.00;;;;;6.06;100.00;102745.97;5117642;27;45238;-84
2022/01/19 00:03:14;;;;;;;;;31.25;21.25;;;;;6.07;100.00;102744.19;5117327;27;44732;-82
2022/01/19 00:05:41;;;;;;;;;27.75;24.50;;;;;6.06;100.00;102739.81;5117793;27;44822;-83
2022/01/19 00:08:06;;;;;;;;;28.33;25.00;;;;;5.95;100.00;102749.63;5117115;27;44892;-82
2022/01/19 00:10:32;;;;;;;;;30.33;26.33;;;;;5.90;100.00;102749.72;5118086;27;45218;-82
2022/01/19 00:12:59;;;;;;;;;34.33;29.33;;;;;5.80;100.00;102750.72;5123061;27;45311;-83
2022/01/19 00:15:26;;;;;;;;;27.67;24.67;;;;;5.77;100.00;102746.38;5102917;27;44849;-82
2022/01/19 00:17:57;;;;;;;;;28.33;25.67;;;;;5.69;100.00;102735.03;5117181;27;44844;-82
2022/01/19 00:20:24;;;;;;;;;24.67;22.00;;;;;5.71;100.00;102727.13;5117337;27;45276;-81
2022/01/19 00:22:51;;;;;;;;;19.00;18.67;;;;;5.71;100.00;102712.19;5117965;27;44806;-82
2022/01/19 00:25:17;;;;;;;;;30.67;24.67;;;;;5.70;100.00;102696.38;5124113;27;45267;-81
2022/01/19 00:27:42;;;;;;;;;27.67;24.33;;;;;5.72;100.00;102687.56;5124153;27;44802;-82
2022/01/19 00:30:08;;;;;;;;;28.00;25.67;;;;;5.70;100.00;102688.44;5119597;27;45327;-83
2022/01/19 00:32:34;;;;;;;;;24.33;23.33;;;;;5.65;100.00;102676.19;5118236;27;44834;-83
2022/01/19 00:35:00;;;;;;;;;24.00;21.67;;;;;5.68;100.00;102670.03;5117526;27;44814;-82
2022/01/19 00:37:25;;;;;;;;;24.50;22.25;;;;;5.66;100.00;102667.44;5117372;27;44882;-82
2022/01/19 00:39:51;;;;;;;;;27.33;26.33;;;;;5.68;100.00;102670.91;5118745;27;45019;-82
2022/01/19 00:42:17;;;;;;;;;33.33;25.00;;;;;5.68;100.00;102683.22;5124517;27;44783;-82
2022/01/19 00:44:42;;;;;;;;;21.00;20.67;;;;;5.69;100.00;102690.22;5098934;27;45303;-82
2022/01/19 00:47:08;;;;;;;;;28.33;27.00;;;;;5.72;100.00;102698.09;5118191;27;44761;-83
2022/01/19 00:49:33;;;;;;;;;28.33;21.33;;;;;5.75;100.00;102692.75;5099023;27;45239;-82
2022/01/19 00:51:58;;;;;;;;;23.67;23.33;;;;;5.76;100.00;102691.88;5118304;27;44733;-82
2022/01/19 00:54:24;;;;;;;;;25.00;19.33;;;;;5.79;100.00;102696.22;5119357;27;45326;-82
2022/01/19 00:56:49;;;;;;;;;46.00;35.33;;;;;5.79;100.00;102702.38;5101320;27;44997;-81
2022/01/19 00:59:15;;;;;;;;;25.33;24.00;;;;;5.81;100.00;102705.00;5119696;27;45188;-82
2022/01/19 01:01:40;;;;;;;;;27.00;23.00;;;;;5.83;100.00;102690.00;5119329;27;45293;-82
2022/01/19 01:04:06;;;;;;;;;26.33;22.33;;;;;5.87;100.00;102683.81;5120365;27;44783;-82
2022/01/19 01:06:31;;;;;;;;;25.33;23.33;;;;;5.91;100.00;102685.50;5125115;27;44816;-82
2022/01/19 01:08:57;;;;;;;;;26.75;22.00;;;;;5.92;100.00;102674.06;5124228;27;45364;-82
2022/01/19 01:11:29;;;;;;;;;28.75;25.25;;;;;5.96;100.00;102672.28;5122119;27;44866;-82
2022/01/19 01:16:35;;;;;;;;;21.00;17.33;;;;;5.97;100.00;102655.53;5122110;27;45402;-82
2022/01/19 01:19:04;;;;;;;;;35.33;32.33;;;;;5.97;100.00;102653.75;5121532;27;45501;-83
2022/01/19 01:21:29;;;;;;;;;26.67;24.67;;;;;5.99;100.00;102649.31;5124275;27;45385;-82
2022/01/19 01:23:55;;;;;;;;;30.67;29.33;;;;;6.02;100.00;102640.50;5121134;27;44805;-81
2022/01/19 01:26:20;;;;;;;;;26.00;24.00;;;;;6.02;100.00;102630.81;5125515;27;45349;-82
2022/01/19 01:28:46;;;;;;;;;26.67;22.67;;;;;6.03;100.00;102635.19;5109055;27;45263;-82
2022/01/19 01:31:11;;;;;;;;;26.67;24.00;;;;;6.05;100.00;102643.09;5124737;27;45161;-83
2022/01/19 01:33:38;;;;;;;;;23.50;21.75;;;;;6.03;100.00;102651.00;5103137;27;45350;-81
2022/01/19 01:36:04;;;;;;;;;24.33;22.67;;;;;6.04;100.00;102651.88;5124845;27;44938;-81
2022/01/19 01:38:29;;;;;;;;;26.00;25.00;;;;;6.02;100.00;102656.31;5124184;27;45104;-80
2022/01/19 01:40:55;;;;;;;;;26.33;24.00;;;;;6.01;100.00;102663.38;5119996;27;45343;-81
2022/01/19 01:43:21;;;;;;;;;26.00;22.00;;;;;5.99;100.00;102657.25;5119780;27;45242;-83
2022/01/19 01:45:50;;;;;;;;;26.00;25.00;;;;;6.02;100.00;102657.19;5122074;27;45285;-82
2022/01/19 01:48:18;;;;;;;;;23.00;23.00;;;;;5.99;100.00;102651.97;5107156;27;46882;-81
2022/01/19 01:53:32;;;;;;;;;34.33;32.00;;;;;5.97;100.00;102644.97;5120020;27;44842;-81
2022/01/19 01:56:05;;;;;;;;;30.00;24.33;;;;;5.99;100.00;102651.97;5119894;27;44860;-82
2022/01/19 01:58:33;;;;;;;;;30.00;25.67;;;;;5.97;100.00;102637.94;5119836;27;45083;-82
2022/01/19 02:00:59;;;;;;;;;27.00;21.00;;;;;5.99;100.00;102640.53;5119980;27;45283;-82
2022/01/19 02:03:25;;;;;;;;;30.33;30.00;;;;;6.00;100.00;102631.75;5120378;27;45450;-82
2022/01/19 02:09:13;;;;;;;;;27.33;24.00;;;;;6.02;100.00;102622.03;5113857;27;45997;-83
2022/01/19 02:24:22;;;;;;;;;26.33;19.00;;;;;5.95;100.00;102592.25;5119531;27;45343;-81
2022/01/19 02:27:03;;;;;;;;;32.00;27.00;;;;;5.95;100.00;102581.72;5119343;27;45350;-81
2022/01/19 02:40:31;;;;;;;;;25.33;25.33;;;;;5.90;100.00;102559.78;5061481;28;45322;-82
2022/01/19 02:50:59;;;;;;;;;30.67;25.33;;;;;5.81;100.00;102525.66;5054839;28;45087;-81
2022/01/19 02:53:24;;;;;;;;;30.33;27.33;;;;;5.80;100.00;102529.19;5055194;28;44781;-81
2022/01/19 02:55:50;;;;;;;;;29.00;24.33;;;;;5.80;100.00;102523.91;5055315;28;45375;-80
2022/01/19 02:58:19;;;;;;;;;28.67;28.67;;;;;5.79;100.00;102517.75;5055092;28;45576;-82
2022/01/19 03:08:42;;;;;;;;;37.67;29.33;;;;;5.78;100.00;102517.81;5055196;28;44957;-82
2022/01/19 03:09:03;;;;;;;;;24.33;24.33;;;;;5.76;100.00;102516.97;5055154;28;44858;-82
2022/01/19 03:11:29;;;;;;;;;33.00;26.67;;;;;5.75;100.00;102518.72;5055669;28;45223;-81
2022/01/19 03:13:55;;;;;;;;;31.67;28.33;;;;;5.76;100.00;102509.06;5056872;28;44845;-82
2022/01/19 03:16:21;;;;;;;;;31.00;30.33;;;;;5.76;100.00;102520.47;5063051;28;45431;-81
2022/01/19 03:18:48;;;;;;;;;28.00;26.00;;;;;5.75;100.00;102510.81;5119382;27;44797;-82
2022/01/19 03:21:15;;;;;;;;;32.00;30.00;;;;;5.78;100.00;102515.16;5118111;27;45570;-80
2022/01/19 03:23:40;;;;;;;;;26.00;25.33;;;;;5.78;100.00;102513.41;5118334;27;44688;-81
2022/01/19 03:26:06;;;;;;;;;33.33;28.00;;;;;5.78;100.00;102513.41;5099832;27;45371;-82
2022/01/19 03:28:35;;;;;;;;;27.67;25.67;;;;;5.78;100.00;102507.25;5118598;27;44835;-83
2022/01/19 03:31:02;;;;;;;;;28.00;25.67;;;;;5.80;100.00;102505.44;5122126;27;45448;-81
2022/01/19 03:33:29;;;;;;;;;33.00;29.00;;;;;5.79;100.00;102507.22;5120847;27;45294;-82
2022/01/19 03:35:54;;;;;;;;;32.67;30.67;;;;;5.79;100.00;102507.22;5121021;27;45304;-82
2022/01/19 03:38:20;;;;;;;;;27.33;24.33;;;;;5.78;100.00;102502.84;5100138;27;44871;-81
2022/01/19 03:40:45;;;;;;;;;28.67;26.00;;;;;5.78;100.00;102497.56;5119946;27;45347;-81
2022/01/19 03:43:11;;;;;;;;;33.67;30.33;;;;;5.80;100.00;102495.78;5119244;27;45373;-82
2022/01/19 03:45:37;;;;;;;;;28.33;26.33;;;;;5.78;100.00;102505.47;5118592;27;44684;-82
2022/01/19 03:50:33;;;;;;;;;33.00;29.00;;;;;5.79;100.00;102494.03;5122463;27;44987;-82
2022/01/19 03:52:59;;;;;;;;;29.33;29.33;;;;;5.78;100.00;102486.16;5124267;27;45252;-82
2022/01/19 03:55:24;;;;;;;;;34.67;30.00;;;;;5.76;100.00;102483.56;5117737;27;44785;-81
2022/01/19 03:57:50;;;;;;;;;32.67;29.33;;;;;5.77;100.00;102479.16;5117929;27;45464;-81
2022/01/19 04:00:16;;;;;;;;;28.00;27.00;;;;;5.79;100.00;102478.22;5117499;27;45323;-82
2022/01/19 04:02:41;;;;;;;;;39.33;32.00;;;;;5.80;100.00;102474.69;5117779;27;44730;-81
2022/01/19 04:05:16;;;;;;;;;36.33;30.67;;;;;5.79;100.00;102469.44;5120188;27;44764;-83
2022/01/19 04:07:42;;;;;;;;;33.67;26.67;;;;;5.77;100.00;102476.53;5119830;27;44858;-82
2022/01/19 04:10:08;;;;;;;;;32.67;28.00;;;;;5.77;100.00;102474.75;5100691;27;46774;-82
2022/01/19 04:12:53;;;;;;;;;31.00;28.67;;;;;5.76;100.00;102470.38;5098759;27;44798;-82
2022/01/19 04:15:19;;;;;;;;;37.67;31.00;;;;;5.73;100.00;102470.41;5117141;27;45269;-81
2022/01/19 04:17:49;;;;;;;;;30.67;30.67;;;;;5.72;100.00;102466.06;5098599;27;45631;-83
2022/01/19 04:20:15;;;;;;;;;35.00;30.33;;;;;5.72;100.00;102471.31;5117415;27;45276;-82
2022/01/19 04:22:41;;;;;;;;;37.00;31.00;;;;;5.72;100.00;102471.31;5117120;27;45338;-81
2022/01/19 04:25:07;;;;;;;;;30.67;27.67;;;;;5.69;100.00;102468.75;5117449;27;44688;-82
2022/01/19 04:27:34;;;;;;;;;32.00;28.33;;;;;5.67;100.00;102475.81;5123295;27;45518;-82
2022/01/19 04:30:09;;;;;;;;;32.67;30.67;;;;;5.68;100.00;102470.50;5124742;27;46078;-81
2022/01/19 04:35:05;;;;;;;;;38.67;31.33;;;;;5.62;100.00;102470.63;5124286;27;45306;-83
2022/01/19 05:05:05;;;;;;;;;33.67;32.00;;;;;5.65;100.00;102462.63;5082012;28;45391;-81
2022/01/19 05:07:41;;;;;;;;;33.33;31.00;;;;;5.61;100.00;102458.34;5080093;28;44965;-82
2022/01/19 05:15:35;;;;;;;;;35.67;33.33;;;;;5.66;100.00;102459.13;5069073;27;45376;-82
2022/01/19 05:18:02;;;;;;;;;36.33;29.00;;;;;5.66;100.00;102466.19;5103686;27;45357;-82
2022/01/19 05:20:28;;;;;;;;;41.00;33.67;;;;;5.66;100.00;102458.28;5103015;27;44710;-83
2022/01/19 05:22:53;;;;;;;;;33.67;30.33;;;;;5.68;100.00;102459.09;5102355;27;45362;-82
2022/01/19 05:25:18;;;;;;;;;34.67;32.33;;;;;5.71;100.00;102452.91;5083380;27;45256;-83
2022/01/19 05:27:44;;;;;;;;;36.00;32.33;;;;;5.72;100.00;102454.66;5100805;27;44940;-81
2022/01/19 05:30:10;;;;;;;;;34.00;30.33;;;;;5.76;100.00;102451.06;5104774;27;44823;-83
2022/01/19 05:32:35;;;;;;;;;37.33;31.00;;;;;5.76;100.00;102449.28;5106390;27;45167;-82
2022/01/19 05:35:00;;;;;;;;;43.33;34.33;;;;;5.79;100.00;102451.84;5091575;27;44639;-83
2022/01/19 05:37:26;;;;;;;;;37.67;32.00;;;;;5.79;100.00;102448.34;5092025;27;44780;-82
2022/01/19 05:39:51;;;;;;;;;33.33;30.00;;;;;5.78;100.00;102438.69;5086418;27;45304;-81
2022/01/19 05:42:17;;;;;;;;;40.67;34.33;;;;;5.78;100.00;102452.75;5102674;27;45038;-81
2022/01/19 05:44:44;;;;;;;;;39.67;36.00;;;;;5.77;100.00;102451.00;5104299;27;44854;-83
2022/01/19 05:47:14;;;;;;;;;32.00;27.67;;;;;5.78;100.00;102452.75;5104707;27;45348;-81
2022/01/19 05:49:43;;;;;;;;;38.33;32.67;;;;;5.77;100.00;102451.00;5101059;27;45542;-82
2022/01/19 05:52:10;;;;;;;;;36.00;32.33;;;;;5.77;100.00;102451.00;5099605;27;45318;-83
2022/01/19 05:54:36;;;;;;;;;36.67;30.00;;;;;5.78;100.00;102454.50;5099367;27;44698;-83
2022/01/19 05:57:02;;;;;;;;;35.33;32.67;;;;;5.79;100.00;102457.13;5097847;27;45387;-83
2022/01/19 05:59:27;;;;;;;;;40.00;35.33;;;;;5.81;100.00;102454.47;5098811;27;45370;-83
2022/01/19 06:01:54;;;;;;;;;32.67;32.67;;;;;5.81;100.00;102454.47;5098751;27;44944;-83
2022/01/19 06:04:19;;;;;;;;;34.67;32.33;;;;;5.81;100.00;102454.47;5098371;27;45344;-83
2022/01/19 06:06:45;;;;;;;;;45.67;35.00;;;;;5.82;100.00;102448.28;5099345;27;45281;-84
2022/01/19 06:09:22;;;;;;;;;39.33;34.33;;;;;5.83;100.00;102442.97;5118766;27;45275;-83
2022/01/19 06:11:48;;;;;;;;;35.33;32.00;;;;;5.85;100.00;102450.84;5119426;27;45467;-84
2022/01/19 06:14:14;;;;;;;;;39.67;35.00;;;;;5.80;100.00;102447.44;5100939;27;44898;-84
2022/01/19 06:16:41;;;;;;;;;31.00;22.33;;;;;5.80;100.00;102448.31;5119590;27;44753;-83
2022/01/19 06:19:06;;;;;;;;;39.33;35.00;;;;;5.77;100.00;102437.81;5120942;27;45397;-83
2022/01/19 06:21:32;;;;;;;;;39.67;31.00;;;;;5.73;100.00;102449.31;5122251;27;45369;-85
2022/01/19 06:23:58;;;;;;;;;26.33;26.00;;;;;5.76;100.00;102454.56;5133125;27;44713;-83
2022/01/19 06:26:23;;;;;;;;;42.67;35.33;;;;;5.76;100.00;102449.28;5129495;27;44809;-83
2022/01/19 06:28:49;;;;;;;;;41.67;34.67;;;;;5.75;100.00;102439.59;5121757;27;45430;-83
2022/01/19 06:31:14;;;;;;;;;37.33;34.00;;;;;5.77;100.00;102450.16;5119764;27;44959;-85
2022/01/19 06:33:40;;;;;;;;;43.33;35.00;;;;;5.80;100.00;102440.41;5119981;27;44846;-83
2022/01/19 06:36:05;;;;;;;;;34.67;31.67;;;;;5.79;100.00;102438.66;5127262;27;44819;-85
2022/01/19 06:38:31;;;;;;;;;40.00;37.00;;;;;5.83;100.00;102426.28;5126769;27;44847;-85
2022/01/19 06:40:57;;;;;;;;;40.00;35.00;;;;;5.87;100.00;102439.38;5121685;27;44997;-83
2022/01/19 06:43:22;;;;;;;;;46.67;38.00;;;;;5.89;100.00;102440.22;5120111;27;44798;-83
2022/01/19 06:45:48;;;;;;;;;47.00;36.00;;;;;5.85;100.00;102438.56;5120270;27;45264;-83
2022/01/19 06:48:13;;;;;;;;;51.33;37.67;;;;;5.83;100.00;102440.34;5118882;27;45529;-83
2022/01/19 06:50:38;;;;;;;;;45.00;40.67;;;;;5.74;100.00;102437.88;5118815;27;45358;-83
2022/01/19 06:53:04;;;;;;;;;52.33;42.00;;;;;5.61;100.00;102434.63;5119435;27;44736;-83
2022/01/19 06:55:29;;;;;;;;;53.00;43.67;;;;;5.65;100.00;102443.31;5118723;27;45395;-84
2022/01/19 06:57:55;;;;;;;;;42.67;38.00;;;;;5.71;100.00;102448.50;5119129;27;45420;-84
2022/01/19 07:00:20;;;;;;;;;43.67;37.67;;;;;5.77;100.00;102436.97;5101843;27;45409;-83
2022/01/19 07:02:45;;;;;;;;;45.33;36.33;;;;;5.81;100.00;102438.66;5122345;27;45508;-83
2022/01/19 07:05:11;;;;;;;;;44.33;36.67;;;;;5.79;100.00;102435.16;5127101;27;44819;-84
2022/01/19 07:07:37;;;;;;;;;44.67;39.67;;;;;5.71;100.00;102434.44;5122162;27;45335;-84
2022/01/19 07:10:04;;;;;;;;;39.00;28.33;;;;;5.59;100.00;102432.91;5118663;27;45296;-84
2022/01/19 07:12:29;;;;;;;;;47.33;37.33;;;;;5.61;100.00;102437.25;5118212;27;45392;-84
2022/01/19 07:14:55;;;;;;;;;47.67;37.00;;;;;5.61;100.00;102436.41;5118772;27;45381;-84
2022/01/19 07:17:20;;;;;;;;;45.67;40.00;;;;;5.61;100.00;102434.63;5118482;27;45291;-84
2022/01/19 07:19:47;;;;;;;;;54.00;43.33;;;;;5.62;100.00;102438.13;5117955;27;45388;-84
2022/01/19 07:22:15;;;;;;;;;55.00;43.67;;;;;5.55;100.00;102441.75;5118820;27;44877;-84
2022/01/19 07:24:41;;;;;;;;;53.33;42.33;;;;;5.53;100.00;102433.88;5119145;27;45255;-83
2022/01/19 07:27:07;;;;;;;;;42.33;38.67;;;;;5.55;100.00;102444.41;5119662;27;45424;-84
2022/01/19 07:29:32;;;;;;;;;53.00;40.33;;;;;5.58;100.00;102442.59;5119699;27;45171;-84
2022/01/19 07:31:58;;;;;;;;;52.00;41.67;;;;;5.66;100.00;102458.28;5120013;27;44643;-84
2022/01/19 07:34:25;;;;;;;;;59.00;43.67;;;;;5.69;100.00;102452.91;5120783;27;44654;-84
2022/01/19 07:36:51;;;;;;;;;53.33;40.33;;;;;5.70;100.00;102446.75;5120491;27;44879;-81
2022/01/19 07:39:16;;;;;;;;;57.67;45.33;;;;;5.69;100.00;102452.91;5100834;27;45272;-82
2022/01/19 07:41:42;;;;;;;;;53.00;44.33;;;;;5.64;100.00;102466.19;5120215;27;44818;-83
2022/01/19 07:44:09;;;;;;;;;61.00;47.33;;;;;5.61;100.00;102449.56;5122560;27;45305;-84
2022/01/19 07:46:34;;;;;;;;;61.33;48.00;;;;;5.59;100.00;102464.53;5106829;27;45391;-83
2022/01/19 07:49:00;;;;;;;;;45.00;37.33;;;;;5.54;100.00;102455.84;5102939;27;45512;-84
2022/01/19 07:51:25;;;;;;;;;53.00;41.67;;;;;5.52;100.00;102461.16;5120098;27;44811;-83
2022/01/19 07:53:51;;;;;;;;;58.67;46.33;;;;;5.49;100.00;102463.84;5100446;27;44833;-83
2022/01/19 07:56:17;;;;;;;;;61.33;47.33;;;;;5.53;100.00;102467.28;5120556;27;44857;-86
2022/01/19 07:58:42;;;;;;;;;55.33;40.67;;;;;5.52;100.00;102474.34;5101330;27;45127;-83
2022/01/19 08:01:08;;;;;;;;;55.67;43.67;;;;;5.54;100.00;102471.66;5100469;27;45308;-83
2022/01/19 08:03:33;;;;;;;;;60.00;48.00;;;;;5.49;100.00;102463.84;5118368;27;44743;-83
2022/01/19 08:05:59;;;;;;;;;57.00;46.67;;;;;5.53;100.00;102459.38;5099759;27;44948;-85
2022/01/19 08:08:24;;;;;;;;;56.67;45.00;;;;;5.51;100.00;102474.34;5117476;27;45421;-84
2022/01/19 08:10:49;;;;;;;;;41.33;37.33;;;;;5.50;100.00;102467.34;5119301;27;44722;-84
2022/01/19 08:13:15;;;;;;;;;49.67;39.67;;;;;5.46;100.00;102476.19;5117793;27;45157;-84
2022/01/19 08:15:41;;;;;;;;;53.00;38.67;;;;;5.48;100.00;102479.69;5117929;27;44977;-81
2022/01/19 08:18:06;;;;;;;;;57.67;44.67;;;;;5.47;100.00;102456.88;5119987;27;45290;-84
2022/01/19 08:20:32;;;;;;;;;49.67;37.33;;;;;5.43;100.00;102463.09;5118324;27;44867;-84
2022/01/19 08:22:57;;;;;;;;;54.00;42.67;;;;;5.45;100.00;102466.56;5119749;27;45294;-84
2022/01/19 08:25:23;;;;;;;;;41.33;37.00;;;;;5.45;100.00;102472.69;5121245;27;44733;-83
2022/01/19 08:27:48;;;;;;;;;62.00;47.33;;;;;5.49;100.00;102481.41;5120479;27;45184;-82
2022/01/19 08:30:15;;;;;;;;;54.33;44.67;;;;;5.48;100.00;102480.56;5101008;27;45348;-84
2022/01/19 08:32:41;;;;;;;;;47.00;37.33;;;;;5.51;100.00;102479.59;5099936;27;44772;-85
2022/01/19 08:35:07;;;;;;;;;51.67;40.33;;;;;5.53;100.00;102489.25;5118575;27;44942;-83
2022/01/19 08:37:34;;;;;;;;;43.33;37.67;;;;;5.57;100.00;102482.16;5120102;27;45436;-83
2022/01/19 08:40:00;;;;;;;;;46.33;39.33;;;;;5.59;100.00;102498.81;5122932;27;44736;-83
2022/01/19 08:42:26;;;;;;;;;45.67;37.33;;;;;5.68;100.00;102485.47;5127270;27;44740;-84
2022/01/19 08:44:53;;;;;;;;;52.33;37.00;;;;;5.68;100.00;102490.72;5124392;27;44910;-83
2022/01/19 08:47:19;;;;;;;;;52.67;41.00;;;;;5.68;100.00;102486.31;5123458;27;45249;-83
2022/01/19 08:49:44;;;;;;;;;48.67;37.00;;;;;5.64;100.00;102495.19;5101555;27;44797;-84
2022/01/19 08:52:10;;;;;;;;;44.00;33.67;;;;;5.68;100.00;102498.66;5119291;27;44794;-83
2022/01/19 08:54:35;;;;;;;;;43.33;38.00;;;;;5.73;100.00;102502.06;5117809;27;44825;-83
2022/01/19 08:57:04;;;;;;;;;54.00;45.67;;;;;5.71;100.00;102506.50;5117009;27;45458;-84
2022/01/19 08:59:30;;;;;;;;;49.00;39.00;;;;;5.75;100.00;102496.75;5117674;27;44704;-85
2022/01/19 09:01:56;;;;;;;;;49.67;38.00;;;;;5.83;100.00;102506.25;5117474;27;44911;-84
2022/01/19 09:04:21;;;;;;;;;33.00;30.33;;;;;5.87;100.00;102494.75;5118614;27;44906;-84
2022/01/19 09:06:47;;;;;;;;;39.00;34.00;;;;;5.88;100.00;102509.69;5119918;27;45215;-84
2022/01/19 09:09:12;;;;;;;;;44.00;37.00;;;;;5.85;100.00;102512.41;5102903;27;44811;-84
2022/01/19 09:11:38;;;;;;;;;49.67;41.33;;;;;5.83;100.00;102514.19;5086101;27;45340;-82
2022/01/19 09:14:06;;;;;;;;;53.00;42.67;;;;;5.85;100.00;102511.50;5101510;27;45482;-84
2022/01/19 09:16:33;;;;;;;;;52.00;40.67;;;;;5.89;100.00;102510.56;5097394;27;45689;-84
2022/01/19 09:18:59;;;;;;;;;57.00;43.33;;;;;5.89;100.00;102515.81;5096556;27;45223;-83
2022/01/19 09:21:25;;;;;;;;;49.00;39.00;;;;;5.95;100.00;102514.88;5096535;27;44691;-83
2022/01/19 09:23:50;;;;;;;;;43.00;35.00;;;;;5.91;100.00;102512.31;5096406;27;44828;-83
2022/01/19 09:26:16;;;;;;;;;52.67;44.00;;;;;5.97;100.00;102519.22;5099786;27;45208;-87
2022/01/19 09:28:41;;;;;;;;;51.67;40.00;;;;;5.95;100.00;102517.50;5100145;27;44678;-87
2022/01/19 09:31:11;;;;;;;;;44.67;37.67;;;;;5.91;100.00;102507.03;5101951;27;44852;-87
2022/01/19 09:33:37;;;;;;;;;56.67;40.67;;;;;5.93;100.00;102513.13;5101971;27;45374;-87
2022/01/19 09:38:35;;;;;;;;;53.00;41.33;;;;;5.94;100.00;102514.00;5101950;27;44732;-86
2022/01/19 09:41:01;;;;;;;;;53.00;42.00;;;;;5.96;100.00;102519.28;5087380;27;44764;-86
2022/01/19 09:43:26;;;;;;;;;50.33;31.67;;;;;6.01;100.00;102520.91;5108684;27;45451;-87
2022/01/19 09:45:58;;;;;;;;;55.33;42.00;;;;;5.97;100.00;102516.59;5108302;27;44878;-86
2022/01/19 09:48:25;;;;;;;;;50.33;38.33;;;;;6.03;100.00;102512.97;5089902;27;45323;-84
2022/01/19 09:50:51;;;;;;;;;40.67;30.67;;;;;6.04;100.00;102510.28;5110555;27;45600;-85
2022/01/19 09:53:17;;;;;;;;;31.67;30.00;;;;;6.04;100.00;102517.34;5111017;27;44879;-85
2022/01/19 09:55:45;;;;;;;;;43.33;37.00;;;;;6.03;100.00;102515.59;5091655;27;46839;-86
2022/01/19 09:58:11;;;;;;;;;50.00;41.00;;;;;5.99;100.00;102514.78;5105606;27;44807;-88
2022/01/19 10:00:37;;;;;;;;;37.67;32.00;;;;;6.04;100.00;102514.69;5088283;27;44768;-89
2022/01/19 10:03:14;;;;;;;;;41.67;36.00;;;;;6.09;100.00;102513.72;5100862;27;44881;-87
2022/01/19 10:06:06;;;;;;;;;45.00;35.33;;;;;6.11;100.00;102506.66;5081853;27;46024;-86
2022/01/19 10:08:46;;;;;;;;;51.33;39.67;;;;;6.10;100.00;102510.19;5091560;27;45239;-87
2022/01/19 10:17:10;;;;;;;;;57.00;42.67;;;;;6.23;100.00;102504.66;5053013;28;45102;-85
2022/01/19 10:19:48;;;;;;;;;58.33;44.00;;;;;6.16;100.00;102515.34;5037305;28;45160;-86
2022/01/19 10:22:23;;;;;;;;;52.67;41.00;;;;;6.18;100.00;102521.44;5037590;28;44825;-84
2022/01/19 10:24:50;;;;;;;;;36.67;33.00;;;;;6.18;100.00;102513.53;5055851;28;45450;-85
2022/01/19 10:27:48;;;;;;;;;55.67;41.00;;;;;6.22;100.00;102513.47;5055171;28;45400;-85
2022/01/19 10:30:23;;;;;;;;;47.67;38.00;;;;;6.16;100.00;102517.97;5043874;28;45391;-86
2022/01/19 10:32:56;;;;;;;;;48.33;38.00;;;;;6.14;100.00;102509.22;5058696;28;45002;-85
2022/01/19 10:35:32;;;;;;;;;49.67;40.00;;;;;6.13;100.00;102510.09;5061358;28;44986;-87
2022/01/19 10:38:26;;;;;;;;;47.33;36.00;;;;;6.18;100.00;102507.38;5063150;28;45002;-86
2022/01/19 10:41:04;;;;;;;;;52.00;40.33;;;;;6.24;100.00;102517.84;5058460;28;44781;-86
2022/01/19 10:43:43;;;;;;;;;53.00;41.00;;;;;6.32;100.00;102515.88;5067354;28;44779;-85
2022/01/19 10:46:28;;;;;;;;;56.67;42.67;;;;;6.27;100.00;102494.00;5065100;28;45686;-85
2022/01/19 10:49:02;;;;;;;;;51.33;39.67;;;;;6.20;100.00;102504.72;5034681;28;46934;-83
2022/01/19 10:51:31;;;;;;;;;54.67;42.00;;;;;6.23;100.00;102504.66;5074967;27;44911;-85
2022/01/19 10:54:11;;;;;;;;;54.67;44.33;;;;;6.32;100.00;102504.47;5099702;27;45544;-85
2022/01/19 10:56:38;;;;;;;;;57.00;44.67;;;;;6.40;100.00;102489.34;5099942;27;45412;-84
2022/01/19 10:59:08;;;;;;;;;52.67;42.33;;;;;6.46;100.00;102478.63;5097635;27;45203;-85
2022/01/19 11:01:51;;;;;;;;;49.33;38.67;;;;;6.41;100.00;102484.03;5104680;27;45402;-85
2022/01/19 11:04:30;;;;;;;;;66.33;51.00;;;;;6.39;100.00;102484.97;5099361;27;45406;-85
2022/01/19 11:07:03;;;;;;;;;52.67;42.67;;;;;6.32;100.00;102488.63;5097675;27;44795;-86
2022/01/19 11:09:31;;;;;;;;;58.33;47.33;;;;;6.35;100.00;102478.88;5082273;27;47043;-84
2022/01/19 11:12:10;;;;;;;;;51.67;40.00;;;;;6.31;100.00;102482.47;5099786;27;44734;-86
2022/01/19 11:14:36;;;;;;;;;57.00;43.00;;;;;6.31;100.00;102485.13;5103809;27;44717;-86
2022/01/19 11:17:02;;;;;;;;;63.33;48.67;;;;;6.42;100.00;102476.97;5105124;27;45224;-86
2022/01/19 11:19:28;;;;;;;;;70.00;52.00;;;;;6.41;100.00;102477.88;5104900;27;45505;-86
2022/01/19 11:22:12;;;;;;;;;62.00;49.00;;;;;6.33;100.00;102488.59;5105863;27;45243;-85
2022/01/19 11:24:43;;;;;;;;;66.67;53.33;;;;;6.31;100.00;102485.13;5103562;27;45311;-85
2022/01/19 11:27:10;;;;;;;;;59.00;45.67;;;;;6.19;100.00;102474.84;5105847;27;44781;-87
2022/01/19 11:29:38;;;;;;;;;67.00;53.00;;;;;6.22;100.00;102473.88;5111025;27;45315;-88
2022/01/19 11:32:18;;;;;;;;;76.00;60.00;;;;;6.24;100.00;102474.72;5112454;27;44868;-85
2022/01/19 11:34:49;;;;;;;;;63.33;48.00;;;;;6.21;100.00;102467.75;5112300;27;44807;-85
2022/01/19 11:37:43;;;;;;;;;82.00;66.00;;;;;6.27;100.00;102469.38;5113374;27;44901;-85
2022/01/19 11:40:13;;;;;;;;;64.67;49.33;;;;;6.25;100.00;102460.63;5119233;27;44994;-86
2022/01/19 11:42:40;;;;;;;;;68.67;52.00;;;;;6.25;100.00;102465.91;5118658;27;44769;-87
2022/01/19 11:45:09;;;;;;;;;67.00;52.00;;;;;6.30;100.00;102453.50;5117759;27;44812;-86
2022/01/19 11:47:35;;;;;;;;;65.33;50.33;;;;;6.33;100.00;102448.13;5114278;27;44917;-86
2022/01/19 11:50:05;;;;;;;;;68.33;53.67;;;;;6.36;100.00;102446.28;5107822;27;46649;-87
2022/01/19 11:52:35;;;;;;;;;71.00;56.33;;;;;6.38;100.00;102446.25;5103974;27;44755;-87
2022/01/19 11:55:16;;;;;;;;;60.33;45.00;;;;;6.35;100.00;102436.66;5099044;27;44721;-88
2022/01/19 11:57:43;;;;;;;;;70.00;56.33;;;;;6.35;100.00;102431.38;5087412;27;44907;-88
2022/01/19 12:00:19;;;;;;;;;65.67;51.67;;;;;6.46;100.00;102431.13;5103754;27;46191;-88
2022/01/19 12:02:48;;;;;;;;;64.00;48.00;;;;;6.41;100.00;102422.44;5106603;27;44831;-88
2022/01/19 12:05:19;;;;;;;;;69.67;51.33;;;;;6.36;100.00;102433.09;5101121;27;45229;-88
2022/01/19 12:07:48;;;;;;;;;62.67;46.67;;;;;6.41;100.00;102438.28;5079324;27;44825;-88
2022/01/19 12:10:16;;;;;;;;;64.00;52.67;;;;;6.39;100.00;102443.59;5090022;27;45397;-87
2022/01/19 12:13:07;;;;;;;;;68.00;50.00;;;;;6.33;100.00;102446.34;5102314;27;44733;-86
2022/01/19 12:15:54;;;;;;;;;61.67;50.00;;;;;6.37;100.00;102442.75;5083076;27;45434;-87
2022/01/19 12:18:38;;;;;;;;;64.33;46.67;;;;;6.47;100.00;102424.06;5100776;27;44860;-87
2022/01/19 12:21:04;;;;;;;;;57.67;46.00;;;;;6.55;100.00;102419.50;5099723;27;45598;-86
2022/01/19 12:23:34;;;;;;;;;58.33;43.33;;;;;6.53;100.00;102416.03;5099803;27;44788;-87
2022/01/19 12:26:01;;;;;;;;;50.67;41.00;;;;;6.52;100.00;102415.13;5099999;27;44720;-87
2022/01/19 12:28:49;;;;;;;;;54.00;44.33;;;;;6.56;100.00;102418.59;5100702;27;44847;-87
2022/01/19 12:31:23;;;;;;;;;56.67;45.67;;;;;6.59;100.00;102413.25;5099389;27;45365;-87
2022/01/19 12:34:09;;;;;;;;;56.33;44.00;;;;;6.68;100.00;102408.63;5081060;27;45245;-87
2022/01/19 12:36:48;;;;;;;;;49.33;38.00;;;;;6.75;100.00;102398.75;5096179;27;44894;-87
2022/01/19 12:39:42;;;;;;;;;47.33;37.00;;;;;6.72;100.00;102404.13;5097522;27;44826;-86
2022/01/19 12:42:17;;;;;;;;;57.33;40.00;;;;;6.75;100.00;102411.97;5085148;27;45134;-87
2022/01/19 12:44:48;;;;;;;;;50.00;37.00;;;;;6.80;100.00;102406.56;5107020;27;44777;-86
2022/01/19 12:47:25;;;;;;;;;51.33;40.00;;;;;6.84;100.00;102405.59;5110801;27;44924;-86